TimeAKST,TemperatureF,Dew PointF,Humidity,Sea Level PressureIn,VisibilityMPH,Wind Direction,Wind SpeedMPH,Gust SpeedMPH,PrecipitationIn,Events,Conditions,WindDirDegrees,DateUTC
12:53 AM,18.0,1.0,48,29.51,10.0,Variable,6.9,-,N/A,,Overcast,0,2012-12-17 09:53:00
1:53 AM,18.0,1.0,48,29.54,10.0,North,9.2,18.4,N/A,,Overcast,10,2012-12-17 10:53:00
3:53 AM,17.1,-0.9,45,29.60,10.0,NNE,15.0,24.2,N/A,,Overcast,30,2012-12-17 12:53:00
4:53 AM,15.1,-2.9,45,29.62,10.0,North,11.5,23.0,N/A,,Clear,10,2012-12-17 13:53:00
5:53 AM,15.1,-2.9,45,29.63,10.0,North,13.8,27.6,N/A,,Clear,10,2012-12-17 14:53:00
6:53 AM,16.0,-2.9,43,29.66,10.0,North,12.7,25.3,N/A,,Overcast,10,2012-12-17 15:53:00
7:53 AM,14.0,-5.1,43,29.69,10.0,North,12.7,25.3,N/A,,Overcast,10,2012-12-17 16:53:00
8:53 AM,14.0,-5.1,43,29.70,10.0,North,18.4,33.4,N/A,,Overcast,10,2012-12-17 17:53:00
9:53 AM,12.9,-6.0,43,29.72,10.0,NNE,25.3,38.0,N/A,,Overcast,20,2012-12-17 18:53:00
10:53 AM,14.0,-5.1,43,29.74,10.0,NNE,25.3,38.0,N/A,,Overcast,30,2012-12-17 19:53:00
11:53 AM,14.0,-6.0,41,29.76,10.0,NNE,21.9,34.5,N/A,,Overcast,30,2012-12-17 20:53:00
12:53 PM,14.0,-6.0,41,29.77,10.0,NNE,25.3,33.4,N/A,,Overcast,20,2012-12-17 21:53:00
3:53 PM,15.1,-5.1,41,29.82,10.0,North,13.8,39.1,N/A,,Mostly Cloudy,10,2012-12-18 00:53:00
4:53 PM,14.0,-5.1,43,29.82,10.0,NNE,15.0,27.6,N/A,,Clear,30,2012-12-18 01:53:00
5:53 PM,12.0,-6.0,44,29.83,10.0,NE,20.7,35.7,N/A,,Clear,40,2012-12-18 02:53:00
6:53 PM,10.9,-6.0,47,29.85,10.0,NE,21.9,41.4,N/A,,Clear,40,2012-12-18 03:53:00
7:53 PM,10.0,-7.1,46,29.85,10.0,NNE,23.0,34.5,N/A,,Clear,30,2012-12-18 04:53:00
8:53 PM,10.0,-7.1,46,29.86,10.0,NE,15.0,31.1,N/A,,Clear,40,2012-12-18 05:53:00
9:29 PM,10.4,-7.6,44,29.86,10.0,NNE,19.6,35.7,N/A,,Squalls,20,2012-12-18 06:29:00
9:53 PM,9.0,-7.1,48,29.85,9.0,NE,24.2,44.9,0.00,,Clear,40,2012-12-18 06:53:00
10:53 PM,8.1,-7.1,50,29.85,10.0,NE,20.7,35.7,0.00,,Clear,40,2012-12-18 07:53:00
11:53 PM,8.1,-8.0,48,29.84,10.0,NNE,23.0,34.5,0.00,,Clear,30,2012-12-18 08:53:00